createdAt,value
2023-02-22T00:00:43.211Z,100453.59
2023-02-22T00:03:50.304Z,100462.03
2023-02-22T00:06:53.996Z,100457.75
2023-02-22T00:09:57.312Z,100451.84
2023-02-22T00:13:00.016Z,100462.97
2023-02-22T00:16:02.990Z,100461.44
2023-02-22T00:19:06.248Z,100445.09
2023-02-22T00:22:09.002Z,100447.84
2023-02-22T00:25:11.724Z,100451.38
2023-02-22T00:28:15.422Z,100449.84
2023-02-22T00:31:19.974Z,100455.00
2023-02-22T00:34:24.403Z,100456.66
2023-02-22T00:37:27.243Z,100445.91
2023-02-22T00:40:32.284Z,100453.69
2023-02-22T00:43:35.529Z,100455.78
2023-02-22T00:46:38.248Z,100455.31
2023-02-22T00:49:40.931Z,100451.97
2023-02-22T00:52:44.504Z,100460.94
2023-02-22T00:55:47.175Z,100452.88
2023-02-22T00:58:49.956Z,100466.59
2023-02-22T01:01:53.782Z,100454.31
2023-02-22T01:04:56.719Z,100458.31
2023-02-22T01:08:01.140Z,100452.62
2023-02-22T01:11:07.129Z,100449.66
2023-02-22T01:14:10.003Z,100438.06
2023-02-22T01:17:15.952Z,100443.72
2023-02-22T01:20:20.911Z,100446.81
2023-02-22T01:23:23.701Z,100442.41
2023-02-22T01:26:26.550Z,100457.34
2023-02-22T01:29:29.288Z,100440.16
2023-02-22T01:32:33.883Z,100440.16
2023-02-22T01:35:41.016Z,100440.03
2023-02-22T01:38:45.257Z,100440.28
2023-02-22T01:41:48.001Z,100440.37
2023-02-22T01:45:28.443Z,100432.06
2023-02-22T01:48:39.166Z,100436.94
2023-02-22T01:51:45.693Z,100439.09
2023-02-22T01:54:53.293Z,100434.13
2023-02-22T01:57:56.226Z,100429.56
2023-02-22T02:00:59.363Z,100428.72
2023-02-22T02:04:05.551Z,100429.56
2023-02-22T02:07:09.724Z,100431.72
2023-02-22T02:10:15.657Z,100433.22
2023-02-22T02:13:20.381Z,100427.56
2023-02-22T02:16:35.904Z,100424.72
2023-02-22T02:19:57.131Z,100422.44
2023-02-22T02:23:24.890Z,100425.16
2023-02-22T02:26:46.430Z,100427.16
2023-02-22T02:30:17.042Z,100425.72
2023-02-22T02:33:27.081Z,100418.44
2023-02-22T02:36:46.640Z,100413.75
2023-02-22T02:40:27.752Z,100411.78
2023-02-22T02:43:48.777Z,100414.97
2023-02-22T02:46:52.225Z,100410.13
2023-02-22T02:50:01.006Z,100417.78
2023-02-22T02:53:06.488Z,100414.81
2023-02-22T02:56:09.186Z,100408.41
2023-02-22T02:59:27.695Z,100413.81
2023-02-22T03:02:42.189Z,100420.19
2023-02-22T03:06:06.175Z,100423.03
2023-02-22T03:09:38.694Z,100421.38
2023-02-22T03:13:11.932Z,100430.03
2023-02-22T03:16:21.341Z,100429.66
2023-02-22T03:19:46.260Z,100433.50
2023-02-22T03:22:58.151Z,100433.13
2023-02-22T03:26:10.156Z,100433.47
2023-02-22T03:29:16.285Z,100427.56
2023-02-22T03:32:24.051Z,100430.16
2023-02-22T03:35:31.752Z,100424.56
2023-02-22T03:38:37.495Z,100423.13
2023-02-22T03:41:40.997Z,100426.34
2023-02-22T03:44:44.769Z,100427.56
2023-02-22T03:47:56.298Z,100427.50
2023-02-22T03:51:01.228Z,100431.22
2023-02-22T03:54:05.181Z,100436.53
2023-02-22T03:57:16.236Z,100434.13
2023-02-22T04:00:23.166Z,100438.91
2023-02-22T04:03:25.982Z,100444.41
2023-02-22T04:06:29.626Z,100447.00
2023-02-22T04:09:32.915Z,100452.41
2023-02-22T04:12:37.043Z,100447.00
2023-02-22T04:15:39.677Z,100450.97
2023-02-22T04:18:42.608Z,100454.19
2023-02-22T04:21:45.298Z,100455.62
2023-02-22T04:24:49.183Z,100458.81
2023-02-22T04:27:55.130Z,100459.22
2023-02-22T04:30:58.527Z,100460.94
2023-02-22T04:34:02.627Z,100459.78
2023-02-22T04:37:05.411Z,100455.41
2023-02-22T04:40:10.765Z,100456.63
2023-02-22T04:43:13.536Z,100455.75
2023-02-22T04:46:16.409Z,100464.81
2023-02-22T04:49:19.198Z,100452.22
2023-02-22T04:52:22.090Z,100454.59
2023-02-22T04:55:24.908Z,100454.69
2023-02-22T04:58:28.178Z,100458.88
2023-02-22T05:01:35.092Z,100455.38
2023-02-22T05:04:41.062Z,100456.69
2023-02-22T05:07:43.874Z,100452.78
2023-02-22T05:10:46.715Z,100456.28
2023-02-22T05:13:49.488Z,100455.75
2023-02-22T05:16:52.174Z,100458.88
2023-02-22T05:19:55.015Z,100458.88
2023-02-22T05:22:59.072Z,100458.06
2023-02-22T05:26:01.824Z,100462.34
2023-02-22T05:29:04.737Z,100461.28
2023-02-22T05:32:08.033Z,100456.34
2023-02-22T05:35:10.821Z,100460.28
2023-02-22T05:38:15.300Z,100466.34
2023-02-22T05:41:18.876Z,100479.38
2023-02-22T05:44:21.929Z,100474.25
2023-02-22T05:47:24.580Z,100472.13
2023-02-22T05:50:27.442Z,100472.25
2023-02-22T05:53:30.703Z,100473.78
2023-02-22T05:56:33.716Z,100477.47
2023-02-22T05:59:39.575Z,100478.19
2023-02-22T06:02:42.377Z,100483.53
2023-02-22T06:05:45.160Z,100488.25
2023-02-22T06:08:48.037Z,100492.09
2023-02-22T06:11:50.783Z,100489.97
2023-02-22T06:14:53.590Z,100493.75
2023-02-22T06:17:58.044Z,100492.44
2023-02-22T06:21:03.563Z,100493.50
2023-02-22T06:24:06.684Z,100504.75
2023-02-22T06:27:09.376Z,100508.31
2023-02-22T06:30:14.580Z,100497.06
2023-02-22T06:33:17.612Z,100500.00
2023-02-22T06:36:20.309Z,100495.09
2023-02-22T06:39:24.013Z,100489.59
2023-02-22T06:42:26.939Z,100481.25
2023-02-22T06:45:29.732Z,100479.06
2023-02-22T06:48:33.298Z,100479.81
2023-02-22T06:51:37.383Z,100477.97
2023-02-22T06:54:40.188Z,100474.81
2023-02-22T06:57:43.658Z,100484.47
2023-02-22T07:00:47.238Z,100488.34
2023-02-22T07:03:50.545Z,100492.78
2023-02-22T07:06:53.369Z,100496.41
2023-02-22T07:09:56.062Z,100495.06
2023-02-22T07:12:58.959Z,100510.53
2023-02-22T07:16:01.674Z,100516.50
2023-02-22T07:19:04.385Z,100516.75
2023-02-22T07:22:07.185Z,100509.94
2023-02-22T07:25:11.564Z,100511.75
2023-02-22T07:28:14.258Z,100521.25
2023-02-22T07:31:17.304Z,100521.22
2023-02-22T07:34:20.206Z,100525.37
2023-02-22T07:37:22.977Z,100527.00
2023-02-22T07:40:27.491Z,100528.09
2023-02-22T07:43:31.848Z,100527.97
2023-02-22T07:46:34.605Z,100536.91
2023-02-22T07:49:37.497Z,100535.78
2023-02-22T07:52:40.677Z,100539.09
2023-02-22T07:55:43.882Z,100534.25
2023-02-22T07:58:46.624Z,100533.81
2023-02-22T08:01:50.681Z,100536.00
2023-02-22T08:04:53.681Z,100536.25
2023-02-22T08:07:59.889Z,100540.91
2023-02-22T08:11:02.943Z,100508.66
2023-02-22T08:14:06.674Z,100541.72
2023-02-22T08:17:09.811Z,100541.00
2023-02-22T08:20:13.592Z,100535.31
2023-02-22T08:23:18.234Z,100536.06
2023-02-22T08:26:21.086Z,100538.63
2023-02-22T08:29:24.027Z,100536.25
2023-02-22T08:32:27.239Z,100538.69
2023-02-22T08:35:31.953Z,100542.75
2023-02-22T08:38:35.155Z,100537.12
2023-02-22T08:41:37.962Z,100537.72
2023-02-22T08:44:41.151Z,100543.44
2023-02-22T08:47:44.823Z,100529.78
2023-02-22T08:50:47.583Z,100529.63
2023-02-22T08:53:50.484Z,100529.75
2023-02-22T08:56:53.243Z,100523.22
2023-02-22T08:59:56.687Z,100527.69
2023-02-22T09:03:01.697Z,100521.16
2023-02-22T09:06:05.489Z,100517.94
2023-02-22T09:09:08.404Z,100517.94
2023-02-22T09:12:11.922Z,100523.25
2023-02-22T09:15:16.635Z,100524.72
2023-02-22T09:18:21.334Z,100528.06
2023-02-22T09:21:24.067Z,100522.09
2023-02-22T09:24:27.486Z,100523.75
2023-02-22T09:27:30.395Z,100525.53
2023-02-22T09:30:35.748Z,100519.22
2023-02-22T09:33:38.604Z,100525.03
2023-02-22T09:36:42.298Z,100525.47
2023-02-22T09:39:45.479Z,100527.38
2023-02-22T09:43:04.427Z,100522.75
2023-02-22T09:46:20.029Z,100527.28
2023-02-22T09:49:38.312Z,100522.41
2023-02-22T09:52:50.239Z,100520.41
2023-02-22T09:55:53.451Z,100522.56
2023-02-22T09:59:00.453Z,100518.94
2023-02-22T10:02:25.042Z,100513.44
2023-02-22T10:05:42.158Z,100503.66
2023-02-22T10:08:46.247Z,100506.75
2023-02-22T10:12:00.734Z,100501.09
2023-02-22T10:15:28.723Z,100496.75
2023-02-22T10:19:08.702Z,100508.19
2023-02-22T10:22:40.352Z,100490.63
2023-02-22T10:25:45.701Z,100489.06
2023-02-22T10:29:10.042Z,100483.97
2023-02-22T10:32:19.810Z,100484.34
2023-02-22T10:35:30.039Z,100476.78
2023-02-22T10:38:34.673Z,100475.06
2023-02-22T10:41:50.383Z,100469.22
2023-02-22T10:44:53.675Z,100463.50
2023-02-22T10:48:18.671Z,100469.28
2023-02-22T10:51:21.785Z,100465.91
2023-02-22T10:55:01.010Z,100463.72
2023-02-22T10:58:09.389Z,100453.16
2023-02-22T11:01:36.763Z,100452.31
2023-02-22T11:04:51.954Z,100451.69
2023-02-22T11:08:22.827Z,100448.44
2023-02-22T11:11:29.080Z,100441.84
2023-02-22T11:14:32.169Z,100438.81
2023-02-22T11:17:35.121Z,100440.00
2023-02-22T11:20:39.901Z,100436.44
2023-02-22T11:23:45.041Z,100433.47
2023-02-22T11:26:50.889Z,100424.44
2023-02-22T11:29:53.783Z,100425.25
2023-02-22T11:33:23.934Z,100426.47
2023-02-22T11:36:33.239Z,100420.34
2023-02-22T11:39:38.735Z,100421.41
2023-02-22T11:42:41.987Z,100422.22
2023-02-22T11:46:02.194Z,100414.81
2023-02-22T11:49:09.430Z,100418.06
2023-02-22T11:52:31.885Z,100416.47
2023-02-22T11:55:45.587Z,100412.84
2023-02-22T11:59:08.318Z,100412.19
2023-02-22T12:03:00.634Z,100408.56
2023-02-22T12:06:12.731Z,100404.91
2023-02-22T12:09:27.331Z,100407.97
2023-02-22T12:13:20.925Z,100400.69
2023-02-22T12:16:39.007Z,100391.09
2023-02-22T12:19:43.867Z,100394.34
2023-02-22T12:23:04.691Z,100388.16
2023-02-22T12:26:16.806Z,100387.47
2023-02-22T12:29:54.205Z,100391.06
2023-02-22T12:33:06.174Z,100386.59
2023-02-22T12:36:14.757Z,100383.94
2023-02-22T12:39:52.886Z,100380.25
2023-02-22T12:43:18.373Z,100381.28
2023-02-22T12:47:00.858Z,100377.59
2023-02-22T12:50:15.589Z,100382.72
2023-02-22T12:53:39.069Z,100374.31
2023-02-22T12:56:46.861Z,100377.09
2023-02-22T12:59:52.881Z,100371.56
2023-02-22T13:03:00.998Z,100372.13
2023-02-22T13:06:55.742Z,100365.38
2023-02-22T13:10:23.696Z,100363.53
2023-02-22T13:13:43.493Z,100361.72
2023-02-22T13:17:05.231Z,100355.31
2023-02-22T13:20:14.740Z,100362.50
2023-02-22T13:23:39.678Z,100354.53
2023-02-22T13:26:54.761Z,100362.31
2023-02-22T13:29:59.657Z,100353.31
2023-02-22T13:33:15.745Z,100354.38
2023-02-22T13:36:38.783Z,100350.34
2023-02-22T13:40:31.994Z,100352.87
2023-02-22T13:43:47.080Z,100349.41
2023-02-22T13:47:16.628Z,100348.09
2023-02-22T13:50:39.533Z,100347.78
2023-02-22T13:53:56.214Z,100340.44
2023-02-22T13:56:59.104Z,100346.38
2023-02-22T14:00:21.137Z,100342.44
2023-02-22T14:03:36.561Z,100338.53
2023-02-22T14:06:41.885Z,100334.31
2023-02-22T14:09:51.266Z,100332.50
2023-02-22T14:12:53.976Z,100327.03
2023-02-22T14:16:00.362Z,100330.12
2023-02-22T14:19:18.255Z,100321.44
2023-02-22T14:22:28.298Z,100321.59
2023-02-22T14:25:43.038Z,100313.66
2023-02-22T14:29:00.110Z,100318.31
2023-02-22T14:32:08.608Z,100312.78
2023-02-22T14:35:28.630Z,100312.03
2023-02-22T14:38:36.725Z,100311.16
2023-02-22T14:41:43.133Z,100313.00
2023-02-22T14:44:54.346Z,100313.25
2023-02-22T14:48:25.183Z,100313.78
2023-02-22T14:51:43.092Z,100307.69
2023-02-22T14:54:54.227Z,100306.25
2023-02-22T14:58:06.736Z,100307.41
2023-02-22T15:01:20.315Z,100304.84
2023-02-22T15:04:25.845Z,100305.06
2023-02-22T15:07:31.850Z,100303.22
2023-02-22T15:10:43.739Z,100302.50
2023-02-22T15:13:51.574Z,100304.34
2023-02-22T15:16:57.257Z,100306.06
2023-02-22T15:20:00.572Z,100303.72
2023-02-22T15:23:04.994Z,100299.19
2023-02-22T15:26:09.329Z,100298.25
2023-02-22T15:29:23.448Z,100294.72
2023-02-22T15:32:36.533Z,100303.03
2023-02-22T15:35:40.787Z,100299.13
2023-02-22T15:38:49.470Z,100305.69
2023-02-22T15:42:19.616Z,100294.66
2023-02-22T15:45:27.370Z,100298.50
2023-02-22T15:48:32.029Z,100295.22
2023-02-22T15:51:36.255Z,100298.25
2023-02-22T15:54:45.210Z,100291.87
2023-02-22T15:57:48.446Z,100293.09
2023-02-22T16:01:01.805Z,100300.56
2023-02-22T16:04:04.982Z,100295.22
2023-02-22T16:07:21.481Z,100296.78
2023-02-22T16:10:33.100Z,100296.25
2023-02-22T16:13:36.602Z,100292.13
2023-02-22T16:16:43.554Z,100294.37
2023-02-22T16:19:46.971Z,100293.94
2023-02-22T16:22:50.241Z,100302.59
2023-02-22T16:26:16.952Z,100303.53
2023-02-22T16:29:27.009Z,100301.78
2023-02-22T16:32:30.745Z,100295.41
2023-02-22T16:35:35.777Z,100288.37
2023-02-22T16:38:39.730Z,100297.19
2023-02-22T16:41:42.973Z,100298.94
2023-02-22T16:44:46.145Z,100290.72
2023-02-22T16:47:53.864Z,100301.66
2023-02-22T16:51:01.924Z,100300.53
2023-02-22T16:54:04.805Z,100302.72
2023-02-22T16:57:07.688Z,100297.81
2023-02-22T17:00:22.009Z,100302.63
2023-02-22T17:03:26.752Z,100309.09
2023-02-22T17:06:29.611Z,100295.94
2023-02-22T17:09:33.197Z,100304.75
2023-02-22T17:12:36.054Z,100307.09
2023-02-22T17:15:39.003Z,100306.62
2023-02-22T17:18:42.126Z,100311.63
2023-02-22T17:21:45.218Z,100318.94
2023-02-22T17:24:48.286Z,100312.72
2023-02-22T17:27:51.331Z,100316.41
2023-02-22T17:30:55.814Z,100314.47
2023-02-22T17:34:06.724Z,100307.25
2023-02-22T17:37:11.125Z,100324.78
2023-02-22T17:40:17.363Z,100332.37
2023-02-22T17:43:20.497Z,100329.81
2023-02-22T17:46:25.388Z,100323.50
2023-02-22T17:49:28.222Z,100322.50
2023-02-22T17:52:30.975Z,100321.34
2023-02-22T17:55:34.646Z,100320.72
2023-02-22T17:58:37.832Z,100323.22
2023-02-22T18:01:44.124Z,100322.25
2023-02-22T18:04:47.169Z,100320.44
2023-02-22T18:07:50.117Z,100314.50
2023-02-22T18:11:02.200Z,100320.09
2023-02-22T18:14:10.174Z,100313.97
2023-02-22T18:17:12.958Z,100311.63
2023-02-22T18:20:20.565Z,100310.47
2023-02-22T18:23:28.015Z,100305.63
2023-02-22T18:26:31.796Z,100310.50
2023-02-22T18:29:34.968Z,100305.37
2023-02-22T18:32:38.808Z,100303.47
2023-02-22T18:35:47.799Z,100301.75
2023-02-22T18:38:55.288Z,100306.97
2023-02-22T18:41:58.556Z,100303.66
2023-02-22T18:49:02.329Z,100294.78
2023-02-22T18:52:12.256Z,100302.25
2023-02-22T18:55:21.279Z,100303.94
2023-02-22T18:58:24.332Z,100305.81
2023-02-22T19:01:28.185Z,100298.78
2023-02-22T19:04:31.324Z,100295.53
2023-02-22T19:07:34.552Z,100302.50
2023-02-22T19:10:38.934Z,100301.44
2023-02-22T19:13:41.788Z,100301.75
2023-02-22T19:16:48.361Z,100297.03
2023-02-22T19:19:52.845Z,100297.56
2023-02-22T19:23:00.666Z,100298.53
2023-02-22T19:26:05.042Z,100297.03
2023-02-22T19:29:09.787Z,100296.09
2023-02-22T19:32:14.090Z,100303.03
2023-02-22T19:35:26.437Z,100296.44
2023-02-22T19:38:29.692Z,100304.19
2023-02-22T19:41:37.495Z,100301.03
2023-02-22T19:44:41.743Z,100299.53
2023-02-22T19:47:46.643Z,100301.66
2023-02-22T19:50:50.163Z,100308.72
2023-02-22T19:53:54.567Z,100303.75
2023-02-22T19:56:59.017Z,100306.66
2023-02-22T20:00:11.004Z,100303.22
2023-02-22T20:03:16.027Z,100304.03
2023-02-22T20:06:19.109Z,100311.06
2023-02-22T20:09:24.957Z,100314.25
2023-02-22T20:12:27.991Z,100313.34
2023-02-22T20:15:34.805Z,100311.66
2023-02-22T20:18:38.020Z,100307.56
2023-02-22T20:21:41.294Z,100318.44
2023-02-22T20:24:44.496Z,100308.53
2023-02-22T20:27:48.133Z,100307.00
2023-02-22T20:30:51.955Z,100309.75
2023-02-22T20:33:57.453Z,100311.00
2023-02-22T20:37:01.588Z,100313.88
2023-02-22T20:40:05.389Z,100312.66
2023-02-22T20:43:09.453Z,100316.09
2023-02-22T20:46:12.772Z,100316.62
2023-02-22T20:49:18.310Z,100319.09
2023-02-22T20:52:21.503Z,100327.72
2023-02-22T20:55:25.115Z,100325.13
2023-02-22T20:58:29.375Z,100326.62
2023-02-22T21:01:32.894Z,100320.56
2023-02-22T21:04:35.986Z,100323.16
2023-02-22T21:07:39.639Z,100321.50
2023-02-22T21:10:47.405Z,100325.28
2023-02-22T21:13:51.210Z,100323.75
2023-02-22T21:16:54.755Z,100319.34
2023-02-22T21:19:58.738Z,100322.37
2023-02-22T21:23:03.234Z,100317.81
2023-02-22T21:26:07.390Z,100315.03
2023-02-22T21:29:10.473Z,100316.94
2023-02-22T21:32:14.051Z,100319.13
2023-02-22T21:35:16.953Z,100312.25
2023-02-22T21:38:21.066Z,100309.09
2023-02-22T21:41:27.983Z,100315.25
2023-02-22T21:44:31.154Z,100315.66
2023-02-22T21:47:35.976Z,100314.87
2023-02-22T21:50:39.229Z,100311.13
2023-02-22T21:53:46.771Z,100309.31
2023-02-22T21:56:50.013Z,100316.31
2023-02-22T21:59:53.386Z,100315.88
2023-02-22T22:03:11.938Z,100314.91
2023-02-22T22:06:15.254Z,100311.34
2023-02-22T22:09:19.282Z,100312.00
2023-02-22T22:12:26.024Z,100311.41
2023-02-22T22:15:37.036Z,100312.06
2023-02-22T22:18:41.186Z,100303.41
2023-02-22T22:21:46.795Z,100307.94
2023-02-22T22:24:50.215Z,100313.88
2023-02-22T22:27:52.979Z,100309.22
2023-02-22T22:30:55.956Z,100303.06
2023-02-22T22:33:58.870Z,100306.97
2023-02-22T22:37:01.620Z,100315.13
2023-02-22T22:40:05.761Z,100313.00
2023-02-22T22:43:08.901Z,100320.00
2023-02-22T22:46:13.409Z,100313.38
2023-02-22T22:49:16.579Z,100311.91
2023-02-22T22:52:19.363Z,100307.75
2023-02-22T22:55:24.540Z,100306.94
2023-02-22T22:58:27.306Z,100302.81
2023-02-22T23:01:34.386Z,100305.91
2023-02-22T23:04:38.267Z,100303.75
2023-02-22T23:07:41.059Z,100305.09
2023-02-22T23:10:43.942Z,100303.72
2023-02-22T23:13:47.017Z,100305.16
2023-02-22T23:16:51.364Z,100311.56
2023-02-22T23:19:54.204Z,100311.56
2023-02-22T23:22:58.106Z,100304.31
2023-02-22T23:26:11.741Z,100309.06
2023-02-22T23:29:15.042Z,100307.50
2023-02-22T23:32:18.112Z,100304.06
2023-02-22T23:35:21.011Z,100304.06
2023-02-22T23:38:23.730Z,100307.63
2023-02-22T23:41:28.863Z,100303.25
2023-02-22T23:44:31.654Z,100294.28
2023-02-22T23:47:34.294Z,100300.44
2023-02-22T23:50:36.986Z,100298.78
2023-02-22T23:53:46.097Z,100295.09
2023-02-22T23:56:58.651Z,100299.38
